createdAt,value
2023-01-09T00:00:55.316Z,95.00
2023-01-09T00:03:22.104Z,94.90
2023-01-09T00:05:48.989Z,94.90
2023-01-09T00:08:15.757Z,94.90
2023-01-09T00:10:42.529Z,95.00
2023-01-09T00:13:12.578Z,95.00
2023-01-09T00:15:40.575Z,95.10
2023-01-09T00:18:07.467Z,95.10
2023-01-09T00:20:35.221Z,95.00
2023-01-09T00:23:02.024Z,95.00
2023-01-09T00:25:28.906Z,95.00
2023-01-09T00:27:55.644Z,95.30
2023-01-09T00:30:22.580Z,95.20
2023-01-09T00:32:49.301Z,95.10
2023-01-09T00:35:17.951Z,95.30
2023-01-09T00:37:44.816Z,95.30
2023-01-09T00:40:14.375Z,95.30
2023-01-09T00:42:42.327Z,95.40
2023-01-09T00:45:14.483Z,95.30
2023-01-09T00:47:48.299Z,95.40
2023-01-09T00:50:20.820Z,95.40
2023-01-09T00:52:48.942Z,95.40
2023-01-09T00:55:16.470Z,95.40
2023-01-09T00:57:43.547Z,95.40
2023-01-09T01:00:11.114Z,95.40
2023-01-09T01:02:37.891Z,95.50
2023-01-09T01:05:23.729Z,95.40
2023-01-09T01:07:50.614Z,95.40
2023-01-09T01:10:25.844Z,95.40
2023-01-09T01:12:53.079Z,95.40
2023-01-09T01:15:21.129Z,95.50
2023-01-09T01:17:48.496Z,95.50
2023-01-09T01:20:17.819Z,95.50
2023-01-09T01:22:44.916Z,95.50
2023-01-09T01:25:13.554Z,95.70
2023-01-09T01:27:40.764Z,95.70
2023-01-09T01:30:09.199Z,95.60
2023-01-09T01:32:36.357Z,95.50
2023-01-09T01:35:03.631Z,95.50
2023-01-09T01:37:30.899Z,95.50
2023-01-09T01:39:57.677Z,95.50
2023-01-09T01:42:24.471Z,95.20
2023-01-09T01:45:09.091Z,95.20
2023-01-09T01:47:44.830Z,95.30
2023-01-09T01:50:32.695Z,95.30
2023-01-09T01:53:10.921Z,95.20
2023-01-09T01:55:41.700Z,95.00
2023-01-09T01:58:11.137Z,95.00
2023-01-09T02:00:42.693Z,95.20
2023-01-09T02:03:10.335Z,95.50
2023-01-09T02:05:38.899Z,95.50
2023-01-09T02:08:08.025Z,95.50
2023-01-09T02:10:36.760Z,95.40
2023-01-09T02:13:04.249Z,95.50
2023-01-09T02:15:46.455Z,95.60
2023-01-09T02:18:25.269Z,95.60
2023-01-09T02:21:05.531Z,95.70
2023-01-09T02:23:53.445Z,95.60
2023-01-09T02:26:57.676Z,95.70
2023-01-09T02:29:45.472Z,95.60
2023-01-09T02:32:24.104Z,95.70
2023-01-09T02:35:19.387Z,95.70
2023-01-09T02:38:02.340Z,95.70
2023-01-09T02:41:13.578Z,95.70
2023-01-09T02:43:41.658Z,95.70
2023-01-09T02:46:21.684Z,95.80
2023-01-09T02:48:53.819Z,95.70
2023-01-09T02:51:30.555Z,95.80
2023-01-09T02:54:37.207Z,95.80
2023-01-09T02:57:13.646Z,95.80
2023-01-09T02:59:40.412Z,95.80
2023-01-09T03:02:39.831Z,95.80
2023-01-09T03:05:16.880Z,95.80
2023-01-09T03:08:18.160Z,95.80
2023-01-09T03:10:56.004Z,95.90
2023-01-09T03:13:25.175Z,95.90
2023-01-09T03:15:55.394Z,95.70
2023-01-09T03:18:25.686Z,95.60
2023-01-09T03:20:54.394Z,95.60
2023-01-09T03:23:21.213Z,95.70
2023-01-09T03:25:47.958Z,95.50
2023-01-09T03:28:34.997Z,95.60
2023-01-09T03:31:01.717Z,95.60
2023-01-09T03:33:28.923Z,95.60
2023-01-09T03:35:55.667Z,95.60
2023-01-09T03:38:22.436Z,95.70
2023-01-09T03:40:49.206Z,95.90
2023-01-09T03:43:15.925Z,95.80
2023-01-09T03:45:43.417Z,95.80
2023-01-09T03:48:10.226Z,96.00
2023-01-09T03:50:36.951Z,96.00
2023-01-09T03:53:03.717Z,96.10
2023-01-09T03:55:30.648Z,96.10
2023-01-09T03:57:57.422Z,96.00
2023-01-09T04:00:24.209Z,96.00
2023-01-09T04:02:51.133Z,95.90
2023-01-09T04:05:17.958Z,95.90
2023-01-09T04:07:44.745Z,95.80
2023-01-09T04:10:12.079Z,95.80
2023-01-09T04:12:38.987Z,95.80
2023-01-09T04:15:06.340Z,95.80
2023-01-09T04:17:33.128Z,95.80
2023-01-09T04:19:59.882Z,95.80
2023-01-09T04:22:26.715Z,95.90
2023-01-09T04:24:53.479Z,95.90
2023-01-09T04:27:20.240Z,95.90
2023-01-09T04:29:47.040Z,96.00
2023-01-09T04:32:13.846Z,96.00
2023-01-09T04:34:40.597Z,96.00
2023-01-09T04:37:07.650Z,96.00
2023-01-09T04:39:34.455Z,96.00
2023-01-09T04:42:01.248Z,96.00
2023-01-09T04:44:28.178Z,95.90
2023-01-09T04:46:56.428Z,95.90
2023-01-09T04:49:23.444Z,96.00
2023-01-09T04:51:50.299Z,96.00
2023-01-09T04:54:17.208Z,95.90
2023-01-09T04:56:43.982Z,95.90
2023-01-09T04:59:10.739Z,96.00
2023-01-09T05:01:37.745Z,95.90
2023-01-09T05:04:06.043Z,95.90
2023-01-09T05:06:35.222Z,95.90
2023-01-09T05:09:02.042Z,95.90
2023-01-09T05:11:29.119Z,95.80
2023-01-09T05:13:55.894Z,95.80
2023-01-09T05:16:22.806Z,95.90
2023-01-09T05:18:49.744Z,96.00
2023-01-09T05:21:16.522Z,95.90
2023-01-09T05:23:43.275Z,96.00
2023-01-09T05:26:10.015Z,96.00
2023-01-09T05:28:36.796Z,95.90
2023-01-09T05:31:03.565Z,95.80
2023-01-09T05:33:30.421Z,95.60
2023-01-09T05:35:57.201Z,95.30
2023-01-09T05:38:23.964Z,95.10
2023-01-09T05:40:50.843Z,94.90
2023-01-09T05:43:17.607Z,94.90
2023-01-09T05:45:44.380Z,94.80
2023-01-09T05:48:11.170Z,94.80
2023-01-09T05:50:37.941Z,94.80
2023-01-09T05:53:04.705Z,94.80
2023-01-09T05:55:31.455Z,94.90
2023-01-09T05:57:58.204Z,94.90
2023-01-09T06:00:24.994Z,94.90
2023-01-09T06:02:51.926Z,95.00
2023-01-09T06:05:18.682Z,95.00
2023-01-09T06:07:45.408Z,95.10
2023-01-09T06:10:14.225Z,95.20
2023-01-09T06:12:42.321Z,95.20
2023-01-09T06:15:09.425Z,95.20
2023-01-09T06:17:36.301Z,95.20
2023-01-09T06:20:03.976Z,95.20
2023-01-09T06:22:30.915Z,95.20
2023-01-09T06:24:57.696Z,95.20
2023-01-09T06:27:24.527Z,95.20
2023-01-09T06:29:51.284Z,95.10
2023-01-09T06:32:18.095Z,95.10
2023-01-09T06:34:45.009Z,95.20
2023-01-09T06:37:12.088Z,95.00
2023-01-09T06:39:38.871Z,94.80
2023-01-09T06:42:05.958Z,94.80
2023-01-09T06:44:33.193Z,94.70
2023-01-09T06:46:59.979Z,94.70
2023-01-09T06:49:26.780Z,94.50
2023-01-09T06:51:53.752Z,94.50
2023-01-09T06:54:21.241Z,94.40
2023-01-09T06:56:48.211Z,94.50
2023-01-09T06:59:15.075Z,94.60
2023-01-09T07:01:42.023Z,94.40
2023-01-09T07:04:12.725Z,94.50
2023-01-09T07:06:39.602Z,94.50
2023-01-09T07:09:06.404Z,94.50
2023-01-09T07:11:33.608Z,94.50
2023-01-09T07:14:00.416Z,94.60
2023-01-09T07:16:27.176Z,94.70
2023-01-09T07:18:54.832Z,94.80
2023-01-09T07:21:21.686Z,94.70
2023-01-09T07:23:48.466Z,94.80
2023-01-09T07:26:15.207Z,94.80
2023-01-09T07:28:41.948Z,94.90
2023-01-09T07:31:09.095Z,95.00
2023-01-09T07:33:35.942Z,95.10
2023-01-09T07:36:02.683Z,95.20
2023-01-09T07:38:29.778Z,95.10
2023-01-09T07:40:56.588Z,95.00
2023-01-09T07:43:23.341Z,94.90
2023-01-09T07:45:50.081Z,94.80
2023-01-09T07:48:16.849Z,94.70
2023-01-09T07:50:43.610Z,94.70
2023-01-09T07:53:10.366Z,94.70
2023-01-09T07:55:37.171Z,94.60
2023-01-09T07:58:03.923Z,94.50
2023-01-09T08:00:32.948Z,94.50
2023-01-09T08:03:00.049Z,94.40
2023-01-09T08:05:26.885Z,94.30
2023-01-09T08:07:53.667Z,94.00
2023-01-09T08:10:20.728Z,93.80
2023-01-09T08:12:48.823Z,93.50
2023-01-09T08:15:16.320Z,92.80
2023-01-09T08:17:44.887Z,92.50
2023-01-09T08:20:13.955Z,92.10
2023-01-09T08:22:49.654Z,92.20
2023-01-09T08:25:17.931Z,92.10
2023-01-09T08:27:45.151Z,91.20
2023-01-09T08:30:13.005Z,90.30
2023-01-09T08:32:41.164Z,90.40
2023-01-09T08:35:08.887Z,90.50
2023-01-09T08:37:35.693Z,90.50
2023-01-09T08:40:02.536Z,90.80
2023-01-09T08:42:48.535Z,90.30
2023-01-09T08:45:33.865Z,90.30
2023-01-09T08:48:00.648Z,90.20
2023-01-09T08:50:27.410Z,90.20
2023-01-09T08:52:54.170Z,90.10
2023-01-09T08:55:21.024Z,89.90
2023-01-09T08:57:50.124Z,89.70
2023-01-09T09:00:19.649Z,89.90
2023-01-09T09:02:50.267Z,89.80
2023-01-09T09:05:17.087Z,89.70
2023-01-09T09:07:43.929Z,88.50
2023-01-09T09:10:11.030Z,88.40
2023-01-09T09:12:37.798Z,87.80
2023-01-09T09:15:16.153Z,87.80
2023-01-09T09:17:44.472Z,88.00
2023-01-09T09:20:12.183Z,86.80
2023-01-09T09:22:38.979Z,87.00
2023-01-09T09:25:06.501Z,86.60
2023-01-09T09:27:33.635Z,85.60
2023-01-09T09:30:00.373Z,85.00
2023-01-09T09:32:27.128Z,84.90
2023-01-09T09:34:53.980Z,84.70
2023-01-09T09:37:20.732Z,85.60
2023-01-09T09:39:47.559Z,85.10
2023-01-09T09:42:46.252Z,83.90
2023-01-09T09:45:50.742Z,83.60
2023-01-09T09:49:02.299Z,83.70
2023-01-09T09:51:51.728Z,83.50
2023-01-09T09:54:38.416Z,85.40
2023-01-09T09:57:06.688Z,83.70
2023-01-09T09:59:37.015Z,83.50
2023-01-09T10:02:03.783Z,83.30
2023-01-09T10:04:34.037Z,83.00
2023-01-09T10:07:09.416Z,82.10
2023-01-09T10:10:00.510Z,82.40
2023-01-09T10:12:43.519Z,81.70
2023-01-09T10:15:26.218Z,81.80
2023-01-09T10:18:06.505Z,83.40
2023-01-09T10:20:50.312Z,82.90
2023-01-09T10:23:20.469Z,83.60
2023-01-09T10:26:06.664Z,82.80
2023-01-09T10:29:10.994Z,83.10
2023-01-09T10:31:56.409Z,83.10
2023-01-09T10:34:46.860Z,83.30
2023-01-09T10:37:33.665Z,83.20
2023-01-09T10:40:13.890Z,82.80
2023-01-09T10:43:11.445Z,83.20
2023-01-09T10:45:50.364Z,83.20
2023-01-09T10:48:28.387Z,84.60
2023-01-09T10:50:56.772Z,84.00
2023-01-09T10:53:28.740Z,83.70
2023-01-09T10:56:04.569Z,83.30
2023-01-09T10:58:31.438Z,83.60
2023-01-09T11:01:01.312Z,82.90
2023-01-09T11:03:28.942Z,83.70
2023-01-09T11:05:58.947Z,84.40
2023-01-09T11:08:42.050Z,84.50
2023-01-09T11:11:09.979Z,84.40
2023-01-09T11:13:38.467Z,83.80
2023-01-09T11:16:11.402Z,84.30
2023-01-09T11:18:47.470Z,84.80
2023-01-09T11:21:40.434Z,84.60
2023-01-09T11:24:27.661Z,84.00
2023-01-09T11:27:13.872Z,84.60
2023-01-09T11:29:42.019Z,85.30
2023-01-09T11:32:23.166Z,84.60
2023-01-09T11:34:50.107Z,85.40
2023-01-09T11:37:29.576Z,85.70
2023-01-09T11:39:59.303Z,85.50
2023-01-09T11:42:46.553Z,85.90
2023-01-09T11:45:28.120Z,84.80
2023-01-09T11:47:55.043Z,84.70
2023-01-09T11:50:27.452Z,85.00
2023-01-09T11:53:16.455Z,84.00
2023-01-09T11:55:45.059Z,83.90
2023-01-09T11:58:19.213Z,84.40
2023-01-09T12:01:19.688Z,85.30
2023-01-09T12:04:17.187Z,83.50
2023-01-09T12:06:43.891Z,83.80
2023-01-09T12:09:37.389Z,84.00
2023-01-09T12:12:18.291Z,83.80
2023-01-09T12:15:22.884Z,83.90
2023-01-09T12:18:06.396Z,84.80
2023-01-09T12:20:39.971Z,83.80
2023-01-09T12:23:23.125Z,83.20
2023-01-09T12:26:07.673Z,84.70
2023-01-09T12:29:12.164Z,84.60
2023-01-09T12:32:12.272Z,85.40
2023-01-09T12:34:59.145Z,84.80
2023-01-09T12:37:55.908Z,85.00
2023-01-09T12:40:52.943Z,85.20
2023-01-09T12:43:41.718Z,84.00
2023-01-09T12:46:21.246Z,83.80
2023-01-09T12:49:26.879Z,83.20
2023-01-09T12:52:03.125Z,83.50
2023-01-09T12:54:42.163Z,83.70
2023-01-09T12:57:36.710Z,84.30
2023-01-09T13:00:18.780Z,84.20
2023-01-09T13:03:11.914Z,84.20
2023-01-09T13:05:49.711Z,84.60
2023-01-09T13:08:40.499Z,84.30
2023-01-09T13:11:20.819Z,83.50
2023-01-09T13:14:11.634Z,83.40
2023-01-09T13:16:44.803Z,84.10
2023-01-09T13:19:33.783Z,83.20
2023-01-09T13:22:01.058Z,84.10
2023-01-09T13:24:55.852Z,83.00
2023-01-09T13:27:25.265Z,83.50
2023-01-09T13:30:08.247Z,84.90
2023-01-09T13:32:49.552Z,83.30
2023-01-09T13:35:16.558Z,83.00
2023-01-09T13:37:50.897Z,83.30
2023-01-09T13:40:20.661Z,83.40
2023-01-09T13:43:05.668Z,83.80
2023-01-09T13:45:35.327Z,83.00
2023-01-09T13:48:11.923Z,82.80
2023-01-09T13:50:39.830Z,81.40
2023-01-09T13:53:27.815Z,82.60
2023-01-09T13:55:57.872Z,83.20
2023-01-09T13:58:54.320Z,83.60
2023-01-09T14:01:27.983Z,84.00
2023-01-09T14:04:14.686Z,82.80
2023-01-09T14:06:44.023Z,82.40
2023-01-09T14:09:20.184Z,83.20
2023-01-09T14:11:49.466Z,83.00
2023-01-09T14:14:44.862Z,83.10
2023-01-09T14:17:27.387Z,83.50
2023-01-09T14:19:57.351Z,83.00
2023-01-09T14:22:30.944Z,82.90
2023-01-09T14:25:06.011Z,83.20
2023-01-09T14:27:54.414Z,81.80
2023-01-09T14:30:26.982Z,82.00
2023-01-09T14:33:15.660Z,82.80
2023-01-09T14:36:21.714Z,81.10
2023-01-09T14:38:59.063Z,81.00
2023-01-09T14:41:58.368Z,80.60
2023-01-09T14:44:33.985Z,81.60
2023-01-09T14:47:11.557Z,81.70
2023-01-09T14:49:50.003Z,81.50
2023-01-09T14:52:29.228Z,81.70
2023-01-09T14:55:02.600Z,82.00
2023-01-09T14:57:34.573Z,82.30
2023-01-09T15:00:14.848Z,82.50
2023-01-09T15:02:43.007Z,82.90
2023-01-09T15:05:23.498Z,82.90
2023-01-09T15:07:58.028Z,83.00
2023-01-09T15:10:38.097Z,83.00
2023-01-09T15:13:08.123Z,83.20
2023-01-09T15:15:35.973Z,83.30
2023-01-09T15:18:07.717Z,83.50
2023-01-09T15:20:35.125Z,83.70
2023-01-09T15:23:04.178Z,84.20
2023-01-09T15:25:40.398Z,84.50
2023-01-09T15:28:33.869Z,85.00
2023-01-09T15:31:13.852Z,85.50
2023-01-09T15:33:42.210Z,86.00
2023-01-09T15:36:22.459Z,86.50
2023-01-09T15:38:50.976Z,87.00
2023-01-09T15:41:42.259Z,87.30
2023-01-09T15:44:19.244Z,87.50
2023-01-09T15:46:46.906Z,87.60
2023-01-09T15:49:14.438Z,87.80
2023-01-09T15:51:44.138Z,87.80
2023-01-09T15:54:12.062Z,88.20
2023-01-09T15:56:39.340Z,88.20
2023-01-09T15:59:24.981Z,88.30
2023-01-09T16:02:19.202Z,88.30
2023-01-09T16:04:47.079Z,88.40
2023-01-09T16:07:16.173Z,88.40
2023-01-09T16:09:47.630Z,88.60
2023-01-09T16:12:23.451Z,88.70
2023-01-09T16:14:56.589Z,88.80
2023-01-09T16:17:26.192Z,88.80
2023-01-09T16:20:17.387Z,88.70
2023-01-09T16:22:56.031Z,88.80
2023-01-09T16:25:32.467Z,88.90
2023-01-09T16:28:24.385Z,88.80
2023-01-09T16:30:56.792Z,88.70
2023-01-09T16:33:25.843Z,88.70
2023-01-09T16:35:53.584Z,88.50
2023-01-09T16:38:22.602Z,88.30
2023-01-09T16:41:18.406Z,88.20
2023-01-09T16:43:46.060Z,88.10
2023-01-09T16:46:15.169Z,88.00
2023-01-09T16:48:42.444Z,87.90
2023-01-09T16:51:18.855Z,87.50
2023-01-09T16:53:45.737Z,87.60
2023-01-09T16:56:21.971Z,87.50
2023-01-09T16:58:49.279Z,87.70
2023-01-09T17:01:16.737Z,87.20
2023-01-09T17:03:44.186Z,87.30
2023-01-09T17:06:31.085Z,87.10
2023-01-09T17:08:58.483Z,87.10
2023-01-09T17:11:31.918Z,87.20
2023-01-09T17:14:00.453Z,87.50
2023-01-09T17:16:29.050Z,87.40
2023-01-09T17:18:56.179Z,86.90
2023-01-09T17:21:26.437Z,86.90
2023-01-09T17:24:13.152Z,86.70
2023-01-09T17:27:01.262Z,86.70
2023-01-09T17:29:29.336Z,86.50
2023-01-09T17:31:57.660Z,86.70
2023-01-09T17:34:24.668Z,86.90
2023-01-09T17:36:51.557Z,86.90
2023-01-09T17:39:18.499Z,86.80
2023-01-09T17:41:45.256Z,87.10
2023-01-09T17:44:12.531Z,87.10
2023-01-09T17:46:41.848Z,87.30
2023-01-09T17:49:15.457Z,87.60
2023-01-09T17:51:42.239Z,87.70
2023-01-09T17:54:09.156Z,87.90
2023-01-09T17:56:38.524Z,88.10
2023-01-09T17:59:07.684Z,88.00
2023-01-09T18:01:35.607Z,88.30
2023-01-09T18:04:02.511Z,88.20
2023-01-09T18:06:32.070Z,88.20
2023-01-09T18:09:05.199Z,88.00
2023-01-09T18:11:32.194Z,88.00
2023-01-09T18:13:59.069Z,88.50
2023-01-09T18:16:27.729Z,88.60
2023-01-09T18:18:58.132Z,88.80
2023-01-09T18:21:26.848Z,88.70
2023-01-09T18:23:53.981Z,88.70
2023-01-09T18:26:21.697Z,88.60
2023-01-09T18:28:56.601Z,88.50
2023-01-09T18:31:27.255Z,88.20
2023-01-09T18:33:56.450Z,88.30
2023-01-09T18:36:29.896Z,88.00
2023-01-09T18:38:59.278Z,88.20
2023-01-09T18:41:26.498Z,88.00
2023-01-09T18:43:56.476Z,88.00
2023-01-09T18:46:26.130Z,88.00
2023-01-09T18:49:01.422Z,88.10
2023-01-09T18:51:28.933Z,87.90
2023-01-09T18:53:56.698Z,87.50
2023-01-09T18:56:24.723Z,87.40
2023-01-09T18:58:58.482Z,87.60
2023-01-09T19:01:27.033Z,87.40
2023-01-09T19:03:55.045Z,87.70
2023-01-09T19:06:22.052Z,87.90
2023-01-09T19:08:49.199Z,87.90
2023-01-09T19:11:16.001Z,87.80
2023-01-09T19:13:42.887Z,87.90
2023-01-09T19:16:10.209Z,87.90
2023-01-09T19:18:39.634Z,87.80
2023-01-09T19:21:26.691Z,87.90
2023-01-09T19:23:54.720Z,88.00
2023-01-09T19:26:26.931Z,87.90
2023-01-09T19:28:57.227Z,87.90
2023-01-09T19:31:25.716Z,87.90
2023-01-09T19:33:53.043Z,87.80
2023-01-09T19:36:20.999Z,87.60
2023-01-09T19:38:48.252Z,87.90
2023-01-09T19:41:19.233Z,88.00
2023-01-09T19:43:46.942Z,87.80
2023-01-09T19:46:18.471Z,87.80
2023-01-09T19:48:46.449Z,87.30
2023-01-09T19:51:14.651Z,87.20
2023-01-09T19:53:41.688Z,87.20
2023-01-09T19:56:17.080Z,87.10
2023-01-09T19:58:55.342Z,87.10
2023-01-09T20:01:25.045Z,87.20
2023-01-09T20:03:52.710Z,87.60
2023-01-09T20:06:24.137Z,87.50
2023-01-09T20:08:56.701Z,87.50
2023-01-09T20:11:25.102Z,87.70
2023-01-09T20:13:52.066Z,87.60
2023-01-09T20:16:21.402Z,87.60
2023-01-09T20:18:48.640Z,87.20
2023-01-09T20:23:50.208Z,87.70
2023-01-09T20:26:17.656Z,87.50
2023-01-09T20:28:45.311Z,87.50
2023-01-09T20:31:13.971Z,87.40
2023-01-09T20:33:40.945Z,87.20
2023-01-09T20:36:09.373Z,86.90
2023-01-09T20:38:41.290Z,86.50
2023-01-09T20:41:22.441Z,86.70
2023-01-09T20:43:55.569Z,86.60
2023-01-09T20:46:24.037Z,87.00
2023-01-09T20:48:51.383Z,87.30
2023-01-09T20:51:18.284Z,87.40
2023-01-09T20:53:46.958Z,87.50
2023-01-09T20:56:14.395Z,87.50
2023-01-09T20:58:42.344Z,87.40
2023-01-09T21:01:12.120Z,87.60
2023-01-09T21:03:39.740Z,87.30
2023-01-09T21:06:15.471Z,87.80
2023-01-09T21:08:44.917Z,87.20
2023-01-09T21:11:12.958Z,87.10
2023-01-09T21:13:40.436Z,87.10
2023-01-09T21:16:10.199Z,87.20
2023-01-09T21:18:37.639Z,87.40
2023-01-09T21:21:07.559Z,87.70
2023-01-09T21:23:34.361Z,87.60
2023-01-09T21:26:01.557Z,87.40
2023-01-09T21:28:31.565Z,87.10
2023-01-09T21:30:58.410Z,87.10
2023-01-09T21:33:25.196Z,87.00
2023-01-09T21:35:56.176Z,87.00
2023-01-09T21:38:24.160Z,86.70
2023-01-09T21:40:51.925Z,86.70
2023-01-09T21:43:44.279Z,86.90
2023-01-09T21:46:42.268Z,87.20
2023-01-09T21:49:09.055Z,86.70
2023-01-09T21:51:38.763Z,86.70
2023-01-09T21:54:05.551Z,87.00
2023-01-09T21:56:32.263Z,87.10
2023-01-09T21:58:59.103Z,87.50
2023-01-09T22:01:25.872Z,87.80
2023-01-09T22:03:59.103Z,87.70
2023-01-09T22:06:26.295Z,87.80
2023-01-09T22:08:53.018Z,87.90
2023-01-09T22:11:19.909Z,87.90
2023-01-09T22:13:48.006Z,87.80
2023-01-09T22:16:14.847Z,87.90
2023-01-09T22:18:41.687Z,87.90
2023-01-09T22:21:09.833Z,88.20
2023-01-09T22:23:36.727Z,88.40
2023-01-09T22:26:11.313Z,88.60
2023-01-09T22:28:38.276Z,88.80
2023-01-09T22:31:17.684Z,88.80
2023-01-09T22:33:49.590Z,88.80
2023-01-09T22:36:16.812Z,88.90
2023-01-09T22:38:43.581Z,89.00
2023-01-09T22:41:10.700Z,89.10
2023-01-09T22:43:37.587Z,89.20
2023-01-09T22:46:11.193Z,88.90
2023-01-09T22:48:38.806Z,89.10
2023-01-09T22:51:10.223Z,89.10
2023-01-09T22:53:36.941Z,89.50
2023-01-09T22:56:05.824Z,89.30
2023-01-09T22:58:32.760Z,89.30
2023-01-09T23:00:59.719Z,89.50
2023-01-09T23:03:27.599Z,89.10
2023-01-09T23:06:05.552Z,89.30
2023-01-09T23:08:33.757Z,89.60
2023-01-09T23:11:01.524Z,89.90
2023-01-09T23:13:28.580Z,90.00
2023-01-09T23:15:55.408Z,89.70
2023-01-09T23:18:22.250Z,89.70
2023-01-09T23:20:53.804Z,89.90
2023-01-09T23:23:21.133Z,89.60
2023-01-09T23:25:56.079Z,89.60
2023-01-09T23:28:23.701Z,89.80
2023-01-09T23:30:50.597Z,89.90
2023-01-09T23:33:18.063Z,90.00
2023-01-09T23:35:44.844Z,90.10
2023-01-09T23:38:12.562Z,90.30
2023-01-09T23:40:44.015Z,90.30
2023-01-09T23:43:11.814Z,90.20
2023-01-09T23:45:40.648Z,90.40
2023-01-09T23:48:09.284Z,90.50
2023-01-09T23:50:36.629Z,90.50
2023-01-09T23:53:03.950Z,90.30
2023-01-09T23:55:31.847Z,90.00
2023-01-09T23:57:58.552Z,90.50
